Time;durP1;ratioP1;P1;durP2;ratioP2;P2;SDS_P1;SDS_P2;PMS_P1;PMS_P2;Temp;Humidity;BMP_temperature;BMP_pressure;BME280_temperature;BME280_humidity;BME280_pressure;Samples;Min_cycle;Max_cycle;Signal;HPM_P1;HPM_P2
2023/06/18 00:00:41;;;;;;;5.28;4.22;;;21.90;99.90;;;;;;1922549;72;22713;-79
2023/06/18 00:06:26;;;;;;;4.95;4.20;;;21.90;99.90;;;;;;1931658;72;22170;-79
2023/06/18 00:12:01;;;;;;;6.72;4.05;;;21.80;99.90;;;;;;1945751;72;22535;-79
2023/06/18 00:14:54;;;;;;;5.53;4.75;;;21.70;99.90;;;;;;1904606;75;21535;-79
2023/06/18 00:17:46;;;;;;;5.33;4.85;;;21.60;99.90;;;;;;1902198;75;21054;-79
2023/06/18 00:20:38;;;;;;;5.62;4.67;;;21.50;99.90;;;;;;1911677;75;21184;-79
2023/06/18 00:23:29;;;;;;;4.97;4.33;;;21.50;99.90;;;;;;1884951;75;21163;-79
2023/06/18 00:26:23;;;;;;;5.40;4.25;;;21.20;99.90;;;;;;1906591;75;21063;-79
2023/06/18 00:29:17;;;;;;;5.70;4.30;;;21.10;99.90;;;;;;1868325;75;21113;-79
2023/06/18 00:32:20;;;;;;;5.08;4.58;;;21.10;99.90;;;;;;1902865;75;21103;-79
2023/06/18 00:35:11;;;;;;;4.70;4.30;;;21.10;99.90;;;;;;1908220;75;21079;-79
2023/06/18 00:38:04;;;;;;;6.10;4.50;;;21.10;99.90;;;;;;1905122;75;21094;-79
2023/06/18 00:43:37;;;;;;;4.30;3.90;;;20.80;99.90;;;;;;1926714;72;22153;-79
2023/06/18 00:46:30;;;;;;;4.80;4.30;;;20.80;99.90;;;;;;1904320;75;21180;-79
2023/06/18 00:49:22;;;;;;;5.83;4.72;;;20.70;99.90;;;;;;1898752;73;21103;-79
2023/06/18 00:52:15;;;;;;;5.28;4.65;;;20.70;99.90;;;;;;1910187;73;21143;-79
2023/06/18 00:55:08;;;;;;;4.80;4.40;;;20.70;99.90;;;;;;1914372;73;21117;-79
2023/06/18 00:58:03;;;;;;;5.42;4.53;;;20.80;99.90;;;;;;1915211;75;21160;-79
2023/06/18 01:00:54;;;;;;;4.70;4.28;;;20.80;99.90;;;;;;1907355;74;21621;-79
2023/06/18 01:06:26;;;;;;;5.92;4.80;;;20.80;99.90;;;;;;1941436;72;22741;-79
2023/06/18 01:09:19;;;;;;;7.28;4.55;;;20.70;99.90;;;;;;1911912;75;21659;-79
2023/06/18 01:12:13;;;;;;;6.53;4.92;;;20.60;99.90;;;;;;1883998;75;21090;-79
2023/06/18 01:15:06;;;;;;;5.17;4.67;;;20.60;99.90;;;;;;1849457;76;21125;-79
2023/06/18 01:18:00;;;;;;;5.92;5.33;;;20.60;99.90;;;;;;1881312;75;21494;-79
2023/06/18 01:20:52;;;;;;;5.50;4.92;;;20.60;99.90;;;;;;1909758;75;21044;-79
2023/06/18 01:26:24;;;;;;;6.17;4.53;;;20.60;99.90;;;;;;1941693;72;22146;-79
2023/06/18 01:29:16;;;;;;;6.45;4.65;;;20.60;99.90;;;;;;1912396;74;21632;-79
2023/06/18 01:32:08;;;;;;;5.28;4.33;;;20.60;99.90;;;;;;1882907;75;21192;-79
2023/06/18 01:35:01;;;;;;;5.00;4.50;;;20.60;99.90;;;;;;1897233;74;21592;-79
2023/06/18 01:46:34;;;;;;;5.28;4.78;;;20.70;99.90;;;;;;1933702;72;22165;-79
2023/06/18 01:49:27;;;;;;;4.95;4.10;;;20.80;99.90;;;;;;1846477;76;21156;-79
2023/06/18 01:52:19;;;;;;;5.33;4.50;;;20.70;99.90;;;;;;1888121;75;21188;-79
2023/06/18 01:55:13;;;;;;;4.70;4.30;;;20.70;99.90;;;;;;1889916;75;21122;-79
2023/06/18 01:58:04;;;;;;;7.08;4.80;;;20.70;99.90;;;;;;1878190;75;21598;-79
2023/06/18 02:00:56;;;;;;;4.47;4.00;;;20.70;99.90;;;;;;1890559;75;21048;-79
2023/06/18 02:03:48;;;;;;;4.92;4.42;;;20.60;99.90;;;;;;1872662;75;21108;-79
2023/06/18 02:09:20;;;;;;;6.05;4.80;;;20.60;99.90;;;;;;1943874;72;22217;-79
2023/06/18 02:12:11;;;;;;;4.62;4.17;;;20.50;99.90;;;;;;1900141;75;21164;-79
2023/06/18 02:15:03;;;;;;;6.65;4.15;;;20.30;99.90;;;;;;1900937;75;21205;-79
2023/06/18 02:17:56;;;;;;;4.65;4.17;;;20.20;99.90;;;;;;1916515;75;21116;-79
2023/06/18 02:20:47;;;;;;;4.67;4.15;;;20.20;99.90;;;;;;1910433;75;21115;-79
2023/06/18 02:23:38;;;;;;;4.83;4.33;;;20.20;99.90;;;;;;1898683;75;21171;-79
2023/06/18 02:26:30;;;;;;;5.30;4.30;;;20.30;99.90;;;;;;1898290;75;21196;-79
2023/06/18 02:32:01;;;;;;;4.72;4.22;;;20.30;99.90;;;;;;1946029;72;22114;-79
2023/06/18 02:34:53;;;;;;;6.25;4.65;;;20.30;99.90;;;;;;1891244;75;21206;-79
2023/06/18 02:37:44;;;;;;;5.28;4.78;;;20.30;99.90;;;;;;1888940;75;21160;-79
2023/06/18 02:40:36;;;;;;;5.10;4.60;;;20.30;99.90;;;;;;1896743;75;21110;-79
2023/06/18 02:46:08;;;;;;;5.47;4.83;;;20.40;99.90;;;;;;1942333;72;22149;-79
2023/06/18 02:51:40;;;;;;;8.05;4.55;;;20.30;99.90;;;;;;1932076;72;22370;-79
2023/06/18 02:54:32;;;;;;;4.75;4.28;;;20.30;99.90;;;;;;1898894;74;21232;-79
2023/06/18 02:57:23;;;;;;;5.17;4.67;;;20.10;99.90;;;;;;1869553;76;21122;-79
2023/06/18 03:00:16;;;;;;;6.47;4.62;;;20.10;99.90;;;;;;1893332;75;21101;-79
2023/06/18 03:03:08;;;;;;;4.60;4.20;;;20.00;99.90;;;;;;1902008;75;21098;-79
2023/06/18 03:06:00;;;;;;;5.53;4.50;;;20.10;99.90;;;;;;1907048;75;21506;-79
2023/06/18 03:08:51;;;;;;;5.53;4.47;;;20.20;99.90;;;;;;1882590;75;21486;-79
2023/06/18 03:11:43;;;;;;;7.67;5.20;;;20.10;99.90;;;;;;1889988;75;21147;-79
2023/06/18 03:14:35;;;;;;;5.03;4.53;;;20.10;99.90;;;;;;1886633;75;21171;-79
2023/06/18 03:17:28;;;;;;;5.40;4.90;;;20.10;99.90;;;;;;1893718;75;21137;-79
2023/06/18 03:20:20;;;;;;;4.83;4.40;;;20.10;99.90;;;;;;1890121;75;21162;-79
2023/06/18 03:23:13;;;;;;;6.37;4.97;;;20.10;99.90;;;;;;1884350;75;21326;-78
2023/06/18 03:28:50;;;;;;;6.30;5.30;;;20.20;99.90;;;;;;1933162;72;28024;-79
2023/06/18 03:31:42;;;;;;;5.00;4.58;;;20.40;99.90;;;;;;1897598;75;21114;-79
2023/06/18 03:37:13;;;;;;;5.45;4.90;;;20.20;99.90;;;;;;1945700;72;22161;-79
2023/06/18 03:40:08;;;;;;;5.03;4.53;;;20.10;99.90;;;;;;1938488;73;21177;-79
2023/06/18 03:43:01;;;;;;;5.15;4.55;;;20.10;99.90;;;;;;1930592;73;21205;-79
2023/06/18 03:45:52;;;;;;;6.80;5.15;;;20.00;99.90;;;;;;1929805;73;21098;-79
2023/06/18 03:51:31;;;;;;;5.42;4.92;;;20.00;99.90;;;;;;1945047;72;22078;-79
2023/06/18 03:57:09;;;;;;;4.85;4.45;;;20.10;99.90;;;;;;1961022;72;22129;-79
2023/06/18 04:00:04;;;;;;;5.30;4.80;;;20.10;99.90;;;;;;1936840;73;21098;-79
2023/06/18 04:02:56;;;;;;;5.05;4.55;;;20.00;99.90;;;;;;1916698;75;21083;-79
2023/06/18 04:08:27;;;;;;;5.95;4.90;;;20.10;99.90;;;;;;1961122;72;22337;-79
2023/06/18 04:11:18;;;;;;;7.37;5.28;;;20.00;99.90;;;;;;1936112;73;21215;-79
2023/06/18 04:14:10;;;;;;;5.08;4.58;;;20.00;99.90;;;;;;1925196;73;21101;-79
2023/06/18 04:17:02;;;;;;;5.25;4.80;;;20.00;99.90;;;;;;1931058;73;21132;-79
2023/06/18 04:22:31;;;;;;;5.95;5.35;;;19.90;99.90;;;;;;1946129;72;22256;-79
2023/06/18 04:25:23;;;;;;;6.03;5.50;;;19.90;99.90;;;;;;1930277;73;21094;-79
2023/06/18 04:28:16;;;;;;;5.55;4.95;;;19.90;99.90;;;;;;1916920;75;21098;-78
2023/06/18 04:31:07;;;;;;;6.08;5.17;;;19.80;99.90;;;;;;1917148;73;21321;-79
2023/06/18 04:34:00;;;;;;;5.37;4.95;;;19.80;99.90;;;;;;1917068;75;21102;-79
2023/06/18 04:36:53;;;;;;;6.50;5.20;;;19.80;99.90;;;;;;1917026;75;21094;-79
2023/06/18 04:39:46;;;;;;;6.22;5.10;;;19.90;99.90;;;;;;1935136;73;21127;-78
2023/06/18 04:42:38;;;;;;;6.37;5.12;;;19.90;99.90;;;;;;1948888;73;21090;-79
2023/06/18 04:45:31;;;;;;;6.67;5.47;;;20.00;99.90;;;;;;1917968;73;21099;-79
2023/06/18 04:51:02;;;;;;;5.55;5.05;;;19.90;99.90;;;;;;1922102;72;22281;-79
2023/06/18 04:56:33;;;;;;;5.80;5.30;;;20.00;99.90;;;;;;1929808;72;22181;-86
2023/06/18 05:02:13;;;;;;;6.50;5.60;;;20.00;99.90;;;;;;1973029;72;22170;-81
2023/06/18 05:07:44;;;;;;;5.78;5.28;;;20.20;99.90;;;;;;1948212;72;22317;-81
2023/06/18 05:13:25;;;;;;;5.90;5.40;;;20.30;99.90;;;;;;1951156;72;22201;-80
2023/06/18 05:16:17;;;;;;;5.87;5.28;;;20.30;99.90;;;;;;1882696;75;21112;-81
2023/06/18 05:19:10;;;;;;;6.83;5.90;;;20.40;99.90;;;;;;1892924;75;21098;-83
2023/06/18 05:22:01;;;;;;;6.08;5.53;;;20.40;99.90;;;;;;1891560;75;21063;-84
2023/06/18 05:24:53;;;;;;;6.62;5.42;;;20.50;99.90;;;;;;1898750;75;21253;-83
2023/06/18 05:27:47;;;;;;;6.12;5.53;;;20.60;99.90;;;;;;1932597;73;21157;-83
2023/06/18 05:30:39;;;;;;;5.90;5.30;;;20.70;99.90;;;;;;1891671;75;21619;-83
2023/06/18 05:36:16;;;;;;;5.60;5.08;;;20.80;99.90;;;;;;1941615;72;22177;-83
2023/06/18 05:39:08;;;;;;;5.55;5.03;;;20.90;99.90;;;;;;1901817;75;21094;-83
2023/06/18 05:42:01;;;;;;;5.55;4.92;;;20.90;99.90;;;;;;1910218;74;21141;-83
2023/06/18 05:44:54;;;;;;;6.12;5.55;;;21.00;99.90;;;;;;1895566;75;21678;-83
2023/06/18 05:47:46;;;;;;;7.72;5.65;;;21.00;99.90;;;;;;1896682;75;21165;-83
2023/06/18 05:50:39;;;;;;;7.33;5.47;;;21.10;99.90;;;;;;1915165;75;21145;-94
2023/06/18 05:56:09;;;;;;;5.87;5.37;;;21.10;99.90;;;;;;1956789;72;22594;-84
2023/06/18 06:01:41;;;;;;;5.83;5.33;;;21.30;99.90;;;;;;1922764;72;22321;-83
2023/06/18 06:04:32;;;;;;;5.87;5.28;;;21.40;99.90;;;;;;1923188;74;21227;-82
2023/06/18 06:07:24;;;;;;;7.53;5.67;;;21.40;99.90;;;;;;1939046;74;21106;-82
2023/06/18 06:10:19;;;;;;;5.78;5.20;;;21.50;99.90;;;;;;1910649;74;21042;-83
2023/06/18 06:13:12;;;;;;;5.67;5.17;;;21.50;99.90;;;;;;1903394;75;21073;-83
2023/06/18 06:16:06;;;;;;;5.80;5.30;;;21.60;99.90;;;;;;1908578;74;21159;-83
2023/06/18 06:18:57;;;;;;;5.75;5.25;;;21.50;99.90;;;;;;1911476;75;21064;-83
2023/06/18 06:21:49;;;;;;;6.45;5.72;;;21.60;99.90;;;;;;1901141;75;21185;-83
2023/06/18 06:27:21;;;;;;;6.12;5.37;;;21.80;99.90;;;;;;1931741;72;22205;-83
2023/06/18 06:30:14;;;;;;;5.47;4.97;;;21.90;99.90;;;;;;1906822;75;21078;-83
2023/06/18 06:33:05;;;;;;;5.25;4.70;;;22.00;99.90;;;;;;1874049;75;21173;-83
2023/06/18 06:35:56;;;;;;;5.90;5.12;;;22.20;99.90;;;;;;1894312;75;21088;-83
2023/06/18 06:41:28;;;;;;;5.62;5.03;;;22.60;99.90;;;;;;1936157;72;22110;-83
2023/06/18 06:44:21;;;;;;;5.28;4.78;;;22.70;99.90;;;;;;1874334;75;21115;-83
2023/06/18 06:47:15;;;;;;;4.75;4.35;;;22.70;99.90;;;;;;1901860;75;21156;-83
2023/06/18 06:50:17;;;;;;;5.37;4.87;;;22.90;99.90;;;;;;1888315;75;21171;-83
2023/06/18 06:53:13;;;;;;;6.97;4.62;;;22.90;99.90;;;;;;1885272;74;21176;-82
2023/06/18 06:56:05;;;;;;;5.30;4.85;;;23.10;99.90;;;;;;1872846;75;21172;-83
2023/06/18 07:01:36;;;;;;;6.00;4.87;;;23.20;99.90;;;;;;1942106;72;22157;-83
2023/06/18 07:04:28;;;;;;;5.10;4.60;;;23.30;99.90;;;;;;1931010;73;21125;-82
2023/06/18 07:07:21;;;;;;;6.08;5.28;;;23.40;99.90;;;;;;1935307;73;21090;-83
2023/06/18 07:10:13;;;;;;;5.95;5.45;;;23.50;99.90;;;;;;1919473;73;21074;-83
2023/06/18 07:13:04;;;;;;;4.97;4.58;;;23.70;99.90;;;;;;1926682;73;21101;-83
2023/06/18 07:15:56;;;;;;;5.50;5.00;;;23.90;99.90;;;;;;1921305;73;21110;-83
2023/06/18 07:18:47;;;;;;;8.33;5.03;;;24.00;99.90;;;;;;1934352;73;21199;-82
2023/06/18 07:21:39;;;;;;;5.65;4.90;;;24.10;99.90;;;;;;1916657;73;21203;-83
2023/06/18 07:27:10;;;;;;;5.67;4.83;;;24.40;99.90;;;;;;1934123;72;22783;-83
2023/06/18 07:32:40;;;;;;;4.97;4.55;;;24.50;99.90;;;;;;1917083;72;22641;-83
2023/06/18 07:38:12;;;;;;;4.92;4.53;;;24.90;99.90;;;;;;1951361;72;22188;-82
2023/06/18 07:43:43;;;;;;;5.72;4.37;;;25.00;99.90;;;;;;1951686;72;22087;-82
2023/06/18 07:49:16;;;;;;;5.15;4.65;;;25.10;99.90;;;;;;1958328;72;22168;-83
2023/06/18 07:52:09;;;;;;;5.22;4.80;;;25.00;99.90;;;;;;1916786;73;21178;-83
2023/06/18 07:55:00;;;;;;;4.65;4.25;;;25.00;99.90;;;;;;1927756;73;21314;-83
2023/06/18 07:57:52;;;;;;;6.08;4.65;;;25.20;99.90;;;;;;1948742;72;21119;-83
2023/06/18 08:00:54;;;;;;;5.10;4.60;;;25.50;99.90;;;;;;1933868;72;21155;-83
2023/06/18 08:06:34;;;;;;;4.67;4.28;;;26.00;99.90;;;;;;1936514;72;22210;-83
2023/06/18 08:09:27;;;;;;;8.88;8.20;;;26.10;99.90;;;;;;1886745;75;21091;-83
2023/06/18 08:12:30;;;;;;;5.03;4.53;;;26.20;99.90;;;;;;1894986;75;21589;-83
2023/06/18 08:15:23;;;;;;;5.08;4.58;;;26.40;99.90;;;;;;1885167;75;21564;-83
2023/06/18 08:21:15;;;;;;;4.90;4.45;;;26.60;99.90;;;;;;1940019;72;22188;-82
2023/06/18 08:24:19;;;;;;;4.62;4.22;;;26.60;99.90;;;;;;1906417;74;21176;-83
2023/06/18 08:27:20;;;;;;;4.80;4.40;;;26.70;99.90;;;;;;1916504;74;21132;-83
2023/06/18 08:32:54;;;;;;;5.08;4.53;;;26.60;99.90;;;;;;1950048;72;22107;-83
2023/06/18 08:41:11;;;;;;;5.72;4.47;;;26.80;99.90;;;;;;1958097;72;22840;-83
2023/06/18 08:47:07;;;;;;;5.55;4.53;;;26.50;99.90;;;;;;1935832;72;20175;-82
2023/06/18 08:50:00;;;;;;;4.78;4.22;;;26.50;99.90;;;;;;1898585;75;21106;-80
2023/06/18 08:55:31;;;;;;;4.78;4.22;;;26.60;99.90;;;;;;1930418;72;22138;-80
2023/06/18 08:58:25;;;;;;;4.40;4.00;;;26.50;99.90;;;;;;1894507;74;21075;-81
2023/06/18 09:01:17;;;;;;;5.03;4.62;;;26.60;99.90;;;;;;1890805;75;21594;-81
2023/06/18 09:04:09;;;;;;;5.08;4.58;;;26.60;99.90;;;;;;1903596;75;21121;-81
2023/06/18 09:07:01;;;;;;;4.92;4.53;;;26.60;99.90;;;;;;1899541;75;21086;-75
2023/06/18 09:09:52;;;;;;;6.97;6.35;;;26.60;99.90;;;;;;1902065;75;21619;-81
2023/06/18 09:12:44;;;;;;;6.30;5.80;;;26.30;99.90;;;;;;1895675;75;21106;-81
2023/06/18 09:15:35;;;;;;;6.95;6.22;;;26.20;99.90;;;;;;1909922;75;21118;-81
2023/06/18 09:21:05;;;;;;;5.55;5.05;;;26.10;99.90;;;;;;1923236;72;22249;-81
2023/06/18 09:26:35;;;;;;;5.97;4.97;;;26.00;99.90;;;;;;1937917;72;22284;-81
2023/06/18 09:29:34;;;;;;;5.53;4.95;;;25.90;99.90;;;;;;1900059;75;21117;-81
2023/06/18 09:32:25;;;;;;;4.97;4.47;;;25.90;99.90;;;;;;1889406;73;21079;-81
2023/06/18 09:35:19;;;;;;;5.45;4.80;;;25.70;99.90;;;;;;1899128;74;21051;-81
2023/06/18 09:38:10;;;;;;;6.30;4.97;;;25.70;99.90;;;;;;1889099;75;21191;-81
2023/06/18 09:46:26;;;;;;;5.60;5.10;;;25.60;99.90;;;;;;1919970;72;38398;-83
2023/06/18 09:51:56;;;;;;;5.12;4.67;;;25.70;99.90;;;;;;1937368;72;22212;-82
2023/06/18 09:54:50;;;;;;;5.03;4.53;;;25.80;99.90;;;;;;1905241;74;21131;-81
2023/06/18 09:57:51;;;;;;;5.85;5.22;;;25.70;99.90;;;;;;1906029;75;21544;-82
2023/06/18 10:03:23;;;;;;;5.40;4.80;;;25.70;99.90;;;;;;1933575;72;22623;-81
2023/06/18 10:06:18;;;;;;;5.53;5.03;;;25.70;99.90;;;;;;1892540;75;21147;-81
2023/06/18 10:09:10;;;;;;;5.42;4.92;;;25.70;99.90;;;;;;1904165;75;21143;-81
2023/06/18 10:12:03;;;;;;;7.40;5.33;;;25.50;99.90;;;;;;1888960;75;21114;-81
2023/06/18 10:14:56;;;;;;;5.83;5.28;;;25.30;99.90;;;;;;1889916;75;21095;-81
2023/06/18 10:17:50;;;;;;;5.60;5.20;;;25.40;99.90;;;;;;1882225;75;21189;-81
2023/06/18 10:23:25;;;;;;;5.47;4.97;;;25.20;99.90;;;;;;1953053;72;22130;-81
2023/06/18 10:26:16;;;;;;;5.80;5.22;;;25.10;99.90;;;;;;1903289;74;21138;-82
2023/06/18 10:29:21;;;;;;;5.50;5.00;;;25.10;99.90;;;;;;1888632;74;21129;-82
2023/06/18 10:32:16;;;;;;;5.90;5.40;;;24.90;99.90;;;;;;1880609;75;21098;-82
2023/06/18 10:35:11;;;;;;;5.12;4.72;;;24.90;99.90;;;;;;1897274;74;21793;-82
2023/06/18 10:38:03;;;;;;;5.33;4.90;;;24.80;99.90;;;;;;1906472;74;21075;-82
2023/06/18 10:43:52;;;;;;;6.00;5.40;;;24.80;99.90;;;;;;1950939;72;22209;-81
2023/06/18 10:46:54;;;;;;;5.60;5.00;;;24.70;99.90;;;;;;1918437;74;21067;-83
2023/06/18 10:50:06;;;;;;;5.83;5.30;;;24.90;99.90;;;;;;1920462;74;21160;-81
2023/06/18 10:53:01;;;;;;;5.65;4.80;;;24.70;99.90;;;;;;1917346;74;21103;-81
2023/06/18 10:58:43;;;;;;;5.70;5.10;;;24.90;99.90;;;;;;1940703;72;22166;-81
2023/06/18 11:01:35;;;;;;;6.10;5.50;;;25.00;99.90;;;;;;1902499;75;21103;-82
2023/06/18 11:07:30;;;;;;;6.67;4.70;;;25.00;99.90;;;;;;1937800;72;22553;-81
2023/06/18 11:10:35;;;;;;;5.30;4.70;;;25.00;99.90;;;;;;1887152;75;21146;-81
2023/06/18 11:16:16;;;;;;;5.45;4.95;;;24.90;99.90;;;;;;1913965;72;22258;-81
2023/06/18 11:19:15;;;;;;;5.92;5.25;;;25.00;99.90;;;;;;1903191;75;21106;-81
2023/06/18 11:24:59;;;;;;;6.10;5.50;;;25.10;99.90;;;;;;1918237;72;35427;-82
2023/06/18 11:27:55;;;;;;;6.42;5.35;;;25.20;99.90;;;;;;1899933;75;21159;-82
2023/06/18 11:30:55;;;;;;;5.42;4.85;;;25.20;99.90;;;;;;1880771;75;21652;-82
2023/06/18 11:33:48;;;;;;;5.25;4.75;;;25.30;99.90;;;;;;1871425;75;21134;-81
2023/06/18 11:36:42;;;;;;;5.08;4.67;;;25.40;99.90;;;;;;1871752;76;21156;-81
2023/06/18 11:39:34;;;;;;;5.92;5.15;;;25.50;99.90;;;;;;1887738;75;21114;-81
2023/06/18 11:42:28;;;;;;;5.95;5.45;;;25.50;99.90;;;;;;1882517;75;21651;-81
2023/06/18 11:45:23;;;;;;;5.75;5.25;;;25.60;99.90;;;;;;1874158;75;21122;-81
2023/06/18 11:48:16;;;;;;;6.50;5.17;;;25.60;99.90;;;;;;1867258;75;21152;-81
2023/06/18 11:51:10;;;;;;;6.03;5.53;;;25.70;99.90;;;;;;1871592;75;21111;-81
2023/06/18 11:54:07;;;;;;;5.42;4.92;;;25.60;99.90;;;;;;1872312;76;21135;-81
2023/06/18 11:56:59;;;;;;;6.20;5.70;;;25.60;99.90;;;;;;1871780;76;21098;-80
2023/06/18 11:59:54;;;;;;;5.78;5.28;;;25.90;99.90;;;;;;1901586;75;21091;-80
2023/06/18 12:02:45;;;;;;;6.05;5.42;;;26.00;99.90;;;;;;1882606;75;21124;-80
2023/06/18 12:05:37;;;;;;;6.00;5.40;;;26.20;99.90;;;;;;1896132;75;21103;-80
2023/06/18 12:08:28;;;;;;;5.87;5.37;;;26.30;99.90;;;;;;1884766;75;21103;-80
2023/06/18 12:11:25;;;;;;;5.62;5.03;;;26.40;99.90;;;;;;1897179;75;21152;-78
2023/06/18 12:14:20;;;;;;;5.53;5.03;;;26.40;99.90;;;;;;1891388;75;21184;-78
2023/06/18 12:17:16;;;;;;;5.30;4.87;;;26.60;99.90;;;;;;1885648;75;21118;-78
2023/06/18 12:22:52;;;;;;;5.78;5.28;;;26.70;99.90;;;;;;1933211;72;22618;-79
2023/06/18 12:25:46;;;;;;;8.03;5.53;;;26.70;99.90;;;;;;1901692;74;21155;-78
2023/06/18 12:28:39;;;;;;;6.37;5.78;;;26.80;99.90;;;;;;1896304;75;21091;-78
2023/06/18 12:31:30;;;;;;;6.40;5.80;;;26.80;99.90;;;;;;1894388;75;21090;-78
2023/06/18 12:34:25;;;;;;;5.72;5.22;;;26.60;99.90;;;;;;1894882;75;21164;-78
2023/06/18 12:37:17;;;;;;;8.35;5.00;;;26.80;99.90;;;;;;1897117;75;21118;-78
2023/06/18 12:40:14;;;;;;;6.22;5.62;;;27.10;99.90;;;;;;1898128;75;21139;-78
2023/06/18 12:43:12;;;;;;;6.03;5.42;;;27.40;99.90;;;;;;1905945;75;21101;-79
2023/06/18 12:46:03;;;;;;;5.85;5.35;;;27.80;99.90;;;;;;1906085;75;21055;-79
2023/06/18 12:48:58;;;;;;;6.05;5.45;;;28.00;99.90;;;;;;1883579;75;21633;-78
2023/06/18 12:54:32;;;;;;;5.78;5.35;;;28.10;99.90;;;;;;1946361;72;22161;-78
2023/06/18 12:57:23;;;;;;;6.37;5.75;;;27.90;99.90;;;;;;1886929;75;21108;-78
2023/06/18 13:00:19;;;;;;;5.53;5.03;;;27.70;99.90;;;;;;1873689;75;21122;-79
2023/06/18 13:03:10;;;;;;;5.60;5.15;;;27.50;99.90;;;;;;1894029;75;21102;-79
2023/06/18 13:06:02;;;;;;;6.00;5.40;;;27.40;99.90;;;;;;1893759;75;21355;-79
2023/06/18 13:08:54;;;;;;;5.65;5.10;;;27.50;99.90;;;;;;1888228;75;21551;-80
2023/06/18 13:11:47;;;;;;;5.80;5.40;;;27.50;99.90;;;;;;1872029;75;21587;-79
2023/06/18 13:14:38;;;;;;;5.83;5.33;;;27.50;99.90;;;;;;1893794;75;21064;-79
2023/06/18 13:17:30;;;;;;;7.62;5.37;;;27.50;99.90;;;;;;1873014;75;21192;-79
2023/06/18 13:20:21;;;;;;;5.55;5.05;;;27.50;99.90;;;;;;1887167;75;21176;-79
2023/06/18 13:25:56;;;;;;;6.10;5.50;;;27.70;99.90;;;;;;1948669;72;22203;-78
2023/06/18 13:28:47;;;;;;;5.95;5.45;;;27.60;99.90;;;;;;1905711;75;21201;-78
2023/06/18 13:31:39;;;;;;;6.00;5.50;;;27.60;99.90;;;;;;1899507;75;21170;-78
2023/06/18 13:34:33;;;;;;;5.72;5.33;;;27.70;99.90;;;;;;1883924;76;21176;-79
2023/06/18 13:37:24;;;;;;;6.08;5.47;;;27.80;99.90;;;;;;1905903;75;21237;-78
2023/06/18 13:40:15;;;;;;;6.97;5.90;;;28.20;99.90;;;;;;1905974;75;21094;-78
2023/06/18 13:43:07;;;;;;;6.20;5.70;;;28.50;99.90;;;;;;1884022;76;21195;-78
2023/06/18 13:46:06;;;;;;;6.65;5.80;;;28.40;99.90;;;;;;1897601;75;21092;-78
2023/06/18 13:48:57;;;;;;;6.12;5.60;;;28.70;99.90;;;;;;1894875;75;21499;-78
2023/06/18 13:51:49;;;;;;;6.75;5.55;;;29.30;99.90;;;;;;1894593;75;21244;-78
2023/06/18 13:54:40;;;;;;;5.87;5.37;;;29.60;99.90;;;;;;1917216;75;21124;-78
2023/06/18 13:57:31;;;;;;;5.65;5.15;;;29.70;99.90;;;;;;1883916;76;21124;-78
2023/06/18 14:00:23;;;;;;;6.10;5.60;;;29.90;99.90;;;;;;1895177;75;21135;-78
2023/06/18 14:03:14;;;;;;;6.15;5.50;;;30.10;99.90;;;;;;1894793;75;21574;-78
2023/06/18 14:06:06;;;;;;;5.72;5.22;;;30.20;99.90;;;;;;1894663;75;21146;-79
2023/06/18 14:08:57;;;;;;;5.90;5.40;;;30.20;99.90;;;;;;1899337;75;21114;-78
2023/06/18 14:11:49;;;;;;;6.35;5.83;;;30.70;99.90;;;;;;1895602;75;21590;-78
2023/06/18 14:14:40;;;;;;;6.17;5.67;;;31.20;99.90;;;;;;1910186;75;21086;-78
2023/06/18 14:17:32;;;;;;;6.00;5.35;;;31.30;99.90;;;;;;1906056;75;21078;-78
2023/06/18 14:20:23;;;;;;;5.50;5.10;;;31.50;99.90;;;;;;1883450;76;21098;-78
2023/06/18 14:23:15;;;;;;;7.05;5.45;;;31.70;99.90;;;;;;1896790;75;21082;-78
2023/06/18 14:26:07;;;;;;;6.55;5.70;;;31.90;99.90;;;;;;1894504;75;21629;-78
2023/06/18 14:28:58;;;;;;;5.65;5.05;;;31.50;99.90;;;;;;1885946;75;21068;-79
2023/06/18 14:31:50;;;;;;;5.00;4.60;;;31.10;99.90;;;;;;1896392;75;21152;-78
2023/06/18 14:34:41;;;;;;;5.85;4.65;;;31.10;99.90;;;;;;1886350;75;21107;-78
2023/06/18 14:37:35;;;;;;;5.35;4.85;;;31.50;99.90;;;;;;1872411;75;21112;-78
2023/06/18 14:40:26;;;;;;;5.95;4.97;;;32.40;99.90;;;;;;1905414;75;21240;-78
2023/06/18 14:43:18;;;;;;;5.65;5.15;;;32.00;99.90;;;;;;1892226;75;21121;-78
2023/06/18 14:46:10;;;;;;;5.40;4.12;;;31.90;99.90;;;;;;1900285;75;21167;-78
2023/06/18 14:49:01;;;;;;;4.47;3.33;;;32.10;99.90;;;;;;1881701;75;21107;-78
2023/06/18 14:51:56;;;;;;;3.77;3.42;;;32.40;99.20;;;;;;1881594;75;21095;-78
2023/06/18 14:54:47;;;;;;;4.28;3.87;;;33.00;97.90;;;;;;1881556;75;21581;-78
2023/06/18 14:57:40;;;;;;;3.90;3.58;;;33.80;94.60;;;;;;1885651;75;21115;-78
2023/06/18 15:00:31;;;;;;;3.75;3.42;;;34.30;91.80;;;;;;1883383;75;21588;-78
2023/06/18 15:03:23;;;;;;;4.92;3.50;;;34.50;90.00;;;;;;1882336;75;21082;-78
2023/06/18 15:06:14;;;;;;;4.53;3.25;;;34.60;87.60;;;;;;1881639;75;21092;-78
2023/06/18 15:09:06;;;;;;;3.83;3.50;;;35.10;84.80;;;;;;1897177;75;21098;-78
2023/06/18 15:14:40;;;;;;;3.72;3.40;;;36.50;80.20;;;;;;1945339;72;22268;-78
2023/06/18 15:17:33;;;;;;;4.40;3.35;;;37.30;76.90;;;;;;1916846;75;21097;-78
2023/06/18 15:20:27;;;;;;;3.60;3.30;;;38.10;72.40;;;;;;1881555;76;21134;-78
2023/06/18 15:23:18;;;;;;;3.77;3.25;;;38.90;68.80;;;;;;1931193;73;21091;-78
2023/06/18 15:26:10;;;;;;;3.27;3.00;;;39.50;67.00;;;;;;1941823;73;21111;-78
2023/06/18 15:29:02;;;;;;;3.92;3.35;;;40.20;63.50;;;;;;1939546;73;21171;-78
2023/06/18 15:31:53;;;;;;;3.22;2.90;;;39.50;62.50;;;;;;1916358;75;21162;-78
2023/06/18 15:34:45;;;;;;;4.17;3.67;;;39.70;61.90;;;;;;1916733;75;21227;-78
2023/06/18 15:37:36;;;;;;;3.60;3.30;;;39.70;61.50;;;;;;1882383;76;21155;-78
2023/06/18 15:40:28;;;;;;;4.00;3.10;;;40.00;59.80;;;;;;1920203;74;21157;-78
2023/06/18 15:43:20;;;;;;;3.45;3.15;;;39.80;58.90;;;;;;1916633;75;21111;-78
2023/06/18 15:46:11;;;;;;;3.60;3.12;;;39.90;58.50;;;;;;1933547;73;21664;-78
2023/06/18 15:49:04;;;;;;;3.55;3.00;;;39.70;57.80;;;;;;1917087;75;21099;-78
2023/06/18 15:51:56;;;;;;;3.10;2.80;;;40.30;57.60;;;;;;1916858;75;21326;-78
2023/06/18 15:54:47;;;;;;;3.50;3.20;;;40.30;56.70;;;;;;1916822;75;21101;-78
2023/06/18 15:57:38;;;;;;;3.17;2.98;;;39.90;56.80;;;;;;1916958;75;21206;-78
2023/06/18 16:00:31;;;;;;;3.47;3.17;;;40.40;56.60;;;;;;1916716;75;21098;-78
2023/06/18 16:03:23;;;;;;;3.40;3.10;;;40.50;56.10;;;;;;1924856;73;21164;-78
2023/06/18 16:06:14;;;;;;;3.02;2.83;;;41.70;55.30;;;;;;1927798;73;21060;-78
2023/06/18 16:09:06;;;;;;;3.55;3.25;;;42.30;52.80;;;;;;1930699;73;21101;-78
2023/06/18 16:11:58;;;;;;;3.90;3.50;;;41.90;53.00;;;;;;1916588;75;21148;-78
2023/06/18 16:14:49;;;;;;;3.80;3.50;;;41.80;52.50;;;;;;1916591;75;21106;-77
2023/06/18 16:17:40;;;;;;;3.12;2.83;;;42.00;52.70;;;;;;1916844;75;21098;-78
2023/06/18 16:20:33;;;;;;;3.00;2.80;;;42.40;51.20;;;;;;1916491;75;21175;-78
2023/06/18 16:23:25;;;;;;;3.95;3.10;;;42.10;51.90;;;;;;1916478;75;21125;-78
2023/06/18 16:26:16;;;;;;;3.35;2.80;;;42.50;51.10;;;;;;1915675;75;21716;-77
2023/06/18 16:29:07;;;;;;;3.25;3.05;;;41.40;51.70;;;;;;1920743;73;21102;-78
2023/06/18 16:31:59;;;;;;;3.40;3.08;;;41.70;51.20;;;;;;1926998;73;21247;-77
2023/06/18 16:34:51;;;;;;;3.52;2.98;;;42.00;51.20;;;;;;1915533;75;21233;-78
2023/06/18 16:37:42;;;;;;;3.30;3.00;;;42.10;51.10;;;;;;1915550;75;21160;-79
2023/06/18 16:40:34;;;;;;;5.53;2.90;;;42.00;51.60;;;;;;1937721;73;21518;-78
2023/06/18 16:43:28;;;;;;;3.05;2.85;;;41.50;50.80;;;;;;1915703;75;21133;-78
2023/06/18 16:46:19;;;;;;;3.22;2.92;;;41.80;50.40;;;;;;1916225;75;21109;-78
2023/06/18 16:49:11;;;;;;;3.40;3.10;;;42.20;50.20;;;;;;1916079;75;21144;-78
2023/06/18 16:52:03;;;;;;;3.50;3.20;;;41.90;49.70;;;;;;1916236;75;21105;-78
2023/06/18 16:54:54;;;;;;;3.60;2.85;;;41.10;49.30;;;;;;1915867;75;21148;-78
2023/06/18 16:57:46;;;;;;;3.42;3.22;;;38.60;52.00;;;;;;1916308;75;21109;-78
2023/06/18 17:00:38;;;;;;;3.33;2.87;;;36.70;54.30;;;;;;1916161;75;21094;-78
2023/06/18 17:03:29;;;;;;;3.47;3.22;;;35.80;56.00;;;;;;1916043;75;21059;-78
2023/06/18 17:06:21;;;;;;;3.60;3.30;;;35.50;56.60;;;;;;1915656;75;21731;-79
2023/06/18 17:09:12;;;;;;;3.25;2.95;;;35.10;57.50;;;;;;1915648;75;21114;-79
2023/06/18 17:12:03;;;;;;;3.37;3.17;;;35.00;57.90;;;;;;1916010;75;21055;-79
2023/06/18 17:14:55;;;;;;;3.47;3.15;;;35.10;58.10;;;;;;1911702;75;21161;-79
2023/06/18 17:17:46;;;;;;;3.75;3.35;;;35.40;58.20;;;;;;1938872;73;21121;-79
2023/06/18 17:20:38;;;;;;;3.75;3.35;;;35.60;57.50;;;;;;1915420;75;21167;-79
2023/06/18 17:23:29;;;;;;;3.55;3.22;;;35.90;57.70;;;;;;1915557;75;21142;-78
2023/06/18 17:26:21;;;;;;;3.80;3.40;;;35.90;57.60;;;;;;1915631;75;21111;-79
2023/06/18 17:29:12;;;;;;;4.97;3.47;;;35.10;58.80;;;;;;1944375;73;21545;-79
2023/06/18 17:32:03;;;;;;;4.58;3.98;;;34.40;59.80;;;;;;1926065;73;21156;-79
2023/06/18 17:34:56;;;;;;;4.22;3.77;;;33.70;61.30;;;;;;1926535;73;21086;-79